KGLS/GLS METAR and TAF weather

Enter ICAO airport designator
Station Type Date Time Source
KGLS METAR 2019/10/15 18:52 UTC NOAA

KGLS 151852Z 19011KT 10SM CLR 30/26 A2992 RMK AO2 SLP131 T03000256


Station Type Date Time Source
KGLS Decoded METAR 2019/10/15 18:52 UTC NOAA

SCHOLES FIELD, TX, United States (KGLS) 29-16N 094-52W 6M
Oct 15, 2019 - 02:52 PM EDT / 2019.10.15 1852 UTC
Wind: from the S (190 degrees) at 13 MPH (11 KT):0
Visibility: 10 mile(s):0
Sky conditions: clear
Temperature: 86.0 F (30.0 C)
Heat index: 98.2 F (36.8 C):1
Dew Point: 78.1 F (25.6 C)
Relative Humidity: 77%
Pressure (altimeter): 29.92 in. Hg (1013 hPa)
ob: KGLS 151852Z 19011KT 10SM CLR 30/26 A2992 RMK AO2 SLP131 T03000256
cycle: 19

Station Type Date Time Source
KGLS TAF 2019/10/15 18:24 UTC NOAA

TAF KGLS 151720Z 1518/1618 19010KT P6SM FEW015 SCT030
FM152000 19009KT P6SM SCT050
FM160000 18008KT P6SM BKN050 BKN120
FM161000 34010KT P6SM VCSH SCT025 BKN250
TEMPO 1611/1612 TSRA BKN012 OVC025CB
FM161600 04009KT P6SM VCSH SCT015 BKN050 OVC120

Example: see airport list